createdAt,value
2022-12-05T00:02:02.145Z,4.75
2022-12-05T00:04:29.625Z,4.65
2022-12-05T00:06:57.447Z,4.85
2022-12-05T00:09:24.828Z,4.32
2022-12-05T00:11:52.373Z,4.28
2022-12-05T00:14:19.611Z,4.38
2022-12-05T00:16:47.332Z,3.75
2022-12-05T00:19:16.138Z,5.05
2022-12-05T00:21:44.237Z,4.70
2022-12-05T00:24:16.854Z,4.35
2022-12-05T00:26:44.596Z,4.38
2022-12-05T00:29:14.587Z,4.97
2022-12-05T00:31:43.272Z,5.70
2022-12-05T00:34:10.582Z,6.68
2022-12-05T00:36:38.298Z,5.88
2022-12-05T00:39:12.913Z,5.72
2022-12-05T00:41:46.095Z,5.50
2022-12-05T00:44:14.166Z,4.70
2022-12-05T00:46:41.955Z,5.63
2022-12-05T00:49:11.813Z,4.97
2022-12-05T00:51:42.386Z,5.65
2022-12-05T00:54:13.220Z,6.07
2022-12-05T00:56:41.173Z,7.22
2022-12-05T00:59:15.748Z,7.22
2022-12-05T01:01:45.199Z,6.10
2022-12-05T01:04:25.033Z,5.25
2022-12-05T01:06:57.898Z,6.97
2022-12-05T01:09:27.022Z,5.68
2022-12-05T01:11:55.990Z,6.63
2022-12-05T01:14:25.356Z,6.30
2022-12-05T01:16:55.028Z,5.60
2022-12-05T01:19:28.854Z,6.07
2022-12-05T01:21:57.273Z,8.00
2022-12-05T01:24:26.224Z,5.53
2022-12-05T01:26:54.603Z,7.38
2022-12-05T01:29:45.148Z,6.35
2022-12-05T01:32:13.561Z,6.03
2022-12-05T01:34:41.862Z,6.57
2022-12-05T01:37:10.529Z,6.90
2022-12-05T01:39:37.716Z,5.57
2022-12-05T01:42:05.822Z,6.80
2022-12-05T01:44:33.250Z,4.75
2022-12-05T01:47:01.417Z,4.40
2022-12-05T01:49:35.666Z,5.35
2022-12-05T01:54:40.796Z,5.60
2022-12-05T01:57:10.786Z,6.05
2022-12-05T01:59:47.838Z,5.22
2022-12-05T02:02:17.212Z,4.18
2022-12-05T02:05:05.327Z,5.22
2022-12-05T02:07:34.050Z,3.80
2022-12-05T02:10:02.846Z,4.05
2022-12-05T02:12:30.558Z,3.97
2022-12-05T02:15:03.945Z,4.13
2022-12-05T02:18:00.502Z,3.83
2022-12-05T02:20:37.194Z,5.20
2022-12-05T02:23:20.346Z,6.32
2022-12-05T02:26:38.911Z,5.65
2022-12-05T02:29:26.645Z,5.35
2022-12-05T02:32:28.914Z,4.70
2022-12-05T02:35:11.477Z,5.05
2022-12-05T02:37:54.649Z,6.15
2022-12-05T02:40:37.502Z,3.97
2022-12-05T02:43:17.395Z,4.55
2022-12-05T02:45:51.229Z,4.75
2022-12-05T02:48:20.773Z,4.88
2022-12-05T02:50:53.027Z,4.30
2022-12-05T02:53:22.900Z,5.22
2022-12-05T02:55:50.908Z,5.13
2022-12-05T02:58:23.843Z,3.90
2022-12-05T03:00:56.105Z,5.10
2022-12-05T03:03:23.990Z,4.18
2022-12-05T03:06:03.088Z,3.97
2022-12-05T03:08:37.317Z,5.15
2022-12-05T03:11:05.288Z,5.22
2022-12-05T03:13:40.447Z,3.80
2022-12-05T03:16:32.701Z,5.03
2022-12-05T03:19:11.283Z,4.32
2022-12-05T03:22:07.674Z,4.85
2022-12-05T03:24:39.370Z,5.47
2022-12-05T03:27:24.482Z,3.97
2022-12-05T03:30:08.957Z,4.93
2022-12-05T03:32:51.841Z,4.80
2022-12-05T03:35:30.893Z,4.13
2022-12-05T03:38:01.459Z,3.63
2022-12-05T03:40:49.589Z,3.65
2022-12-05T03:43:20.822Z,4.32
2022-12-05T03:45:56.607Z,3.42
2022-12-05T03:49:01.280Z,4.70
2022-12-05T03:51:38.308Z,4.18
2022-12-05T03:54:14.020Z,3.25
2022-12-05T03:56:46.453Z,4.20
2022-12-05T03:59:34.732Z,3.85
2022-12-05T04:02:08.635Z,6.40
2022-12-05T04:04:52.856Z,4.95
2022-12-05T04:07:21.287Z,5.63
2022-12-05T04:10:03.309Z,4.70
2022-12-05T04:12:34.874Z,5.28
2022-12-05T04:15:26.616Z,6.03
2022-12-05T04:17:58.493Z,5.10
2022-12-05T04:21:00.543Z,3.85
2022-12-05T04:23:28.504Z,4.40
2022-12-05T04:26:23.803Z,4.85
2022-12-05T04:28:57.076Z,4.75
2022-12-05T04:31:35.239Z,5.25
2022-12-05T04:34:10.329Z,4.60
2022-12-05T04:36:46.405Z,5.05
2022-12-05T04:39:24.084Z,4.43
2022-12-05T04:41:55.127Z,5.63
2022-12-05T04:44:27.712Z,4.88
2022-12-05T04:46:59.766Z,4.88
2022-12-05T04:49:29.758Z,5.28
2022-12-05T04:52:05.089Z,4.88
2022-12-05T04:55:05.837Z,4.50
2022-12-05T04:57:51.146Z,4.82
2022-12-05T05:00:19.070Z,5.88
2022-12-05T05:02:56.202Z,6.35
2022-12-05T05:05:24.205Z,4.85
2022-12-05T05:07:54.046Z,4.85
2022-12-05T05:10:34.870Z,4.80
2022-12-05T05:13:02.468Z,4.28
2022-12-05T05:15:29.777Z,4.03
2022-12-05T05:17:57.306Z,5.03
2022-12-05T05:20:27.337Z,3.63
2022-12-05T05:22:57.455Z,4.22
2022-12-05T05:25:25.947Z,3.80
2022-12-05T05:27:56.709Z,4.22
2022-12-05T05:30:25.183Z,3.65
2022-12-05T05:32:53.312Z,4.47
2022-12-05T05:35:21.738Z,4.40
2022-12-05T05:37:50.183Z,4.65
2022-12-05T05:40:18.046Z,5.63
2022-12-05T05:42:48.833Z,4.63
2022-12-05T05:45:16.553Z,5.78
2022-12-05T05:47:44.248Z,5.22
2022-12-05T05:50:16.348Z,5.47
2022-12-05T05:52:47.254Z,4.50
2022-12-05T05:55:14.845Z,4.85
2022-12-05T05:57:42.496Z,4.68
2022-12-05T06:00:11.545Z,5.53
2022-12-05T06:02:39.542Z,4.88
2022-12-05T06:05:07.645Z,4.70
2022-12-05T06:07:35.249Z,6.53
2022-12-05T06:10:02.690Z,5.28
2022-12-05T06:12:30.470Z,5.32
2022-12-05T06:14:59.309Z,4.53
2022-12-05T06:17:28.929Z,6.38
2022-12-05T06:19:57.937Z,5.20
2022-12-05T06:22:25.767Z,4.32
2022-12-05T06:24:56.473Z,4.75
2022-12-05T06:27:24.032Z,5.22
2022-12-05T06:29:51.570Z,5.57
2022-12-05T06:32:19.175Z,5.40
2022-12-05T06:34:47.445Z,5.55
2022-12-05T06:37:15.033Z,6.07
2022-12-05T06:39:42.535Z,5.20
2022-12-05T06:42:10.504Z,5.13
2022-12-05T06:44:38.083Z,5.53
2022-12-05T06:47:05.730Z,5.30
2022-12-05T06:49:37.560Z,6.25
2022-12-05T06:52:05.767Z,5.78
2022-12-05T06:54:33.130Z,4.70
2022-12-05T06:57:00.734Z,8.40
2022-12-05T06:59:28.008Z,6.85
2022-12-05T07:01:55.550Z,4.95
2022-12-05T07:04:26.744Z,11.60
2022-12-05T07:06:55.657Z,58.53
2022-12-05T07:09:46.105Z,28.60
2022-12-05T07:12:17.248Z,26.13
2022-12-05T07:14:47.946Z,7.45
2022-12-05T07:17:21.078Z,5.25
2022-12-05T07:19:50.031Z,8.02
2022-12-05T07:22:21.210Z,27.75
2022-12-05T07:24:52.661Z,11.13
2022-12-05T07:27:26.514Z,39.75
2022-12-05T07:29:54.803Z,28.75
2022-12-05T07:32:22.551Z,18.67
2022-12-05T07:34:55.044Z,11.63
2022-12-05T07:37:24.992Z,7.78
2022-12-05T07:39:54.718Z,11.20
2022-12-05T07:42:22.403Z,8.35
2022-12-05T07:44:49.740Z,6.05
2022-12-05T07:47:17.458Z,6.38
2022-12-05T07:49:45.403Z,7.28
2022-12-05T07:52:13.277Z,17.38
2022-12-05T07:54:40.689Z,15.93
2022-12-05T07:57:08.193Z,22.08
2022-12-05T07:59:35.398Z,34.47
2022-12-05T08:02:03.417Z,8.30
2022-12-05T08:04:30.999Z,9.35
2022-12-05T08:06:59.882Z,9.00
2022-12-05T08:09:27.739Z,13.23
2022-12-05T08:11:55.286Z,18.80
2022-12-05T08:14:22.553Z,12.25
2022-12-05T08:16:50.403Z,12.15
2022-12-05T08:19:17.921Z,5.00
2022-12-05T08:21:45.703Z,5.43
2022-12-05T08:24:14.264Z,7.10
2022-12-05T08:26:41.960Z,5.53
2022-12-05T08:29:12.039Z,5.05
2022-12-05T08:31:50.187Z,6.85
2022-12-05T08:34:20.041Z,7.05
2022-12-05T08:36:48.237Z,6.30
2022-12-05T08:39:17.746Z,6.13
2022-12-05T08:41:46.795Z,5.38
2022-12-05T08:44:17.278Z,4.50
2022-12-05T08:46:47.889Z,7.47
2022-12-05T08:49:17.346Z,4.47
2022-12-05T08:51:45.698Z,9.55
2022-12-05T08:54:14.107Z,4.60
2022-12-05T08:56:41.671Z,4.53
2022-12-05T08:59:08.956Z,4.65
2022-12-05T09:01:39.697Z,5.78
2022-12-05T09:04:08.513Z,5.40
2022-12-05T09:06:36.608Z,5.25
2022-12-05T09:09:06.958Z,6.10
2022-12-05T09:11:38.223Z,4.40
2022-12-05T09:14:05.576Z,4.97
2022-12-05T09:16:38.529Z,5.55
2022-12-05T09:19:14.057Z,21.87
2022-12-05T09:24:12.498Z,9.57
2022-12-05T09:26:41.212Z,17.55
2022-12-05T09:29:14.133Z,8.73
2022-12-05T09:31:44.335Z,5.85
2022-12-05T09:34:14.994Z,16.67
2022-12-05T09:36:43.051Z,16.52
2022-12-05T09:39:10.904Z,20.90
2022-12-05T09:42:08.125Z,6.10
2022-12-05T09:44:52.562Z,14.50
2022-12-05T09:47:23.312Z,5.55
2022-12-05T09:50:14.253Z,7.00
2022-12-05T09:53:05.613Z,8.68
2022-12-05T09:56:05.070Z,6.30
2022-12-05T09:58:46.825Z,7.35
2022-12-05T10:01:51.783Z,4.60
2022-12-05T10:05:08.724Z,4.82
2022-12-05T10:07:46.788Z,6.90
2022-12-05T10:11:09.950Z,13.68
2022-12-05T10:13:55.653Z,6.13
2022-12-05T10:16:34.313Z,7.47
2022-12-05T10:19:11.179Z,6.65
2022-12-05T10:22:10.313Z,8.95
2022-12-05T10:24:44.124Z,11.75
2022-12-05T10:27:21.074Z,12.90
2022-12-05T10:30:01.687Z,15.15
2022-12-05T10:32:37.594Z,9.55
2022-12-05T10:35:23.416Z,9.68
2022-12-05T10:38:08.160Z,14.80
2022-12-05T10:40:45.568Z,7.18
2022-12-05T10:43:17.016Z,10.57
2022-12-05T10:45:47.862Z,10.02
2022-12-05T10:48:19.092Z,14.55
2022-12-05T10:50:52.253Z,8.43
2022-12-05T10:53:46.592Z,9.50
2022-12-05T10:56:36.544Z,6.68
2022-12-05T10:59:06.553Z,10.57
2022-12-05T11:01:37.529Z,15.07
2022-12-05T11:04:20.306Z,13.65
2022-12-05T11:07:00.538Z,19.77
2022-12-05T11:09:39.462Z,23.35
2022-12-05T11:12:09.795Z,20.88
2022-12-05T11:14:37.467Z,15.35
2022-12-05T11:17:06.396Z,10.13
2022-12-05T11:19:36.910Z,19.25
2022-12-05T11:22:05.856Z,25.92
2022-12-05T11:24:38.478Z,11.88
2022-12-05T11:27:27.586Z,11.85
2022-12-05T11:29:59.958Z,9.75
2022-12-05T11:32:33.857Z,12.02
2022-12-05T11:35:14.580Z,16.05
2022-12-05T11:37:50.752Z,13.95
2022-12-05T11:40:42.946Z,15.88
2022-12-05T11:43:39.932Z,15.73
2022-12-05T11:46:29.273Z,11.27
2022-12-05T11:49:20.481Z,8.20
2022-12-05T11:52:41.583Z,8.48
2022-12-05T11:55:34.958Z,10.40
2022-12-05T11:58:27.635Z,7.70
2022-12-05T12:01:29.507Z,11.55
2022-12-05T12:04:31.005Z,12.90
2022-12-05T12:07:36.002Z,13.60
2022-12-05T12:10:33.919Z,11.55
2022-12-05T12:13:44.189Z,11.68
2022-12-05T12:16:39.335Z,7.80
2022-12-05T12:19:36.017Z,10.90
2022-12-05T12:22:18.574Z,11.63
2022-12-05T12:25:13.962Z,8.95
2022-12-05T12:27:41.459Z,10.88
2022-12-05T12:30:20.635Z,11.27
2022-12-05T12:33:19.655Z,9.27
2022-12-05T12:39:58.869Z,11.85
2022-12-05T12:43:04.365Z,11.93
2022-12-05T12:46:58.690Z,8.93
2022-12-05T12:49:46.690Z,7.22
2022-12-05T12:52:30.378Z,11.60
2022-12-05T12:55:16.217Z,9.07
2022-12-05T12:58:07.475Z,11.13
2022-12-05T13:01:36.575Z,8.15
2022-12-05T13:04:30.395Z,9.68
2022-12-05T13:07:06.207Z,8.85
2022-12-05T13:10:29.246Z,8.93
2022-12-05T13:13:01.233Z,8.98
2022-12-05T13:15:53.029Z,6.95
2022-12-05T13:18:24.441Z,8.27
2022-12-05T13:20:57.480Z,7.03
2022-12-05T13:23:29.360Z,7.03
2022-12-05T13:25:59.800Z,13.45
2022-12-05T13:28:33.614Z,35.55
2022-12-05T13:33:37.100Z,10.30
2022-12-05T13:36:27.154Z,9.00
2022-12-05T13:39:16.826Z,11.13
2022-12-05T13:42:10.091Z,8.23
2022-12-05T13:44:43.963Z,7.88
2022-12-05T13:47:49.153Z,7.13
2022-12-05T13:50:44.501Z,7.37
2022-12-05T13:53:24.016Z,7.00
2022-12-05T13:56:04.656Z,7.05
2022-12-05T13:58:42.842Z,7.50
2022-12-05T14:01:36.182Z,6.90
2022-12-05T14:04:42.409Z,6.60
2022-12-05T14:07:11.464Z,6.55
2022-12-05T14:09:58.585Z,7.57
2022-12-05T14:12:31.167Z,8.15
2022-12-05T14:15:01.745Z,8.32
2022-12-05T14:17:42.502Z,7.00
2022-12-05T14:20:27.308Z,6.85
2022-12-05T14:23:13.749Z,7.80
2022-12-05T14:26:13.698Z,8.18
2022-12-05T14:29:00.670Z,7.60
2022-12-05T14:32:11.655Z,7.75
2022-12-05T14:34:54.536Z,8.30
2022-12-05T14:38:01.529Z,9.45
2022-12-05T14:40:34.983Z,10.95
2022-12-05T14:43:21.352Z,11.23
2022-12-05T14:46:05.712Z,10.07
2022-12-05T14:51:32.788Z,10.82
2022-12-05T14:54:23.382Z,10.40
2022-12-05T14:57:07.929Z,11.38
2022-12-05T14:59:49.823Z,8.90
2022-12-05T15:02:32.951Z,10.52
2022-12-05T15:05:24.024Z,8.70
2022-12-05T15:07:53.731Z,9.52
2022-12-05T15:10:27.160Z,9.93
2022-12-05T15:12:57.368Z,12.57
2022-12-05T15:15:36.468Z,11.77
2022-12-05T15:18:30.289Z,11.07
2022-12-05T15:21:22.189Z,24.73
2022-12-05T15:24:01.849Z,13.38
2022-12-05T15:26:51.904Z,14.20
2022-12-05T15:29:33.289Z,13.57
2022-12-05T15:32:06.363Z,11.63
2022-12-05T15:35:05.422Z,13.23
2022-12-05T15:38:15.021Z,13.07
2022-12-05T15:40:50.371Z,12.82
2022-12-05T15:43:53.541Z,10.60
2022-12-05T15:46:28.173Z,12.38
2022-12-05T15:48:58.029Z,13.18
2022-12-05T15:51:37.263Z,10.50
2022-12-05T15:54:16.497Z,11.25
2022-12-05T15:57:03.337Z,15.23
2022-12-05T15:59:47.746Z,14.65
2022-12-05T16:02:27.250Z,12.32
2022-12-05T16:04:59.841Z,13.95
2022-12-05T16:07:31.322Z,12.88
2022-12-05T16:10:00.882Z,12.63
2022-12-05T16:12:37.721Z,12.23
2022-12-05T16:15:13.664Z,13.15
2022-12-05T16:17:46.521Z,12.85
2022-12-05T16:20:17.230Z,15.68
2022-12-05T16:22:48.964Z,13.52
2022-12-05T16:25:21.969Z,13.00
2022-12-05T16:28:22.216Z,13.43
2022-12-05T16:31:02.660Z,14.52
2022-12-05T16:33:31.618Z,13.75
2022-12-05T16:36:11.209Z,15.02
2022-12-05T16:38:41.037Z,11.77
2022-12-05T16:41:11.604Z,16.40
2022-12-05T16:43:39.049Z,12.32
2022-12-05T16:46:15.502Z,12.73
2022-12-05T16:48:45.023Z,11.23
2022-12-05T16:51:26.095Z,11.98
2022-12-05T16:53:55.509Z,13.10
2022-12-05T16:56:32.888Z,11.68
2022-12-05T16:59:08.268Z,13.15
2022-12-05T17:01:39.238Z,13.85
2022-12-05T17:04:11.246Z,14.18
2022-12-05T17:06:39.532Z,11.73
2022-12-05T17:09:06.843Z,13.20
2022-12-05T17:11:37.362Z,15.77
2022-12-05T17:14:04.763Z,16.40
2022-12-05T17:16:32.514Z,16.27
2022-12-05T17:18:59.904Z,13.32
2022-12-05T17:21:31.846Z,14.43
2022-12-05T17:24:01.640Z,16.10
2022-12-05T17:26:29.356Z,15.32
2022-12-05T17:28:57.220Z,14.60
2022-12-05T17:31:26.561Z,15.07
2022-12-05T17:33:54.938Z,11.95
2022-12-05T17:36:23.122Z,11.10
2022-12-05T17:38:51.855Z,10.32
2022-12-05T17:41:25.447Z,12.25
2022-12-05T17:43:55.039Z,11.10
2022-12-05T17:46:23.954Z,11.65
2022-12-05T17:48:53.609Z,10.40
2022-12-05T17:51:23.949Z,10.65
2022-12-05T17:53:53.125Z,11.02
2022-12-05T17:56:23.695Z,13.25
2022-12-05T17:58:51.054Z,10.63
2022-12-05T18:01:20.316Z,11.20
2022-12-05T18:03:48.941Z,11.85
2022-12-05T18:06:17.725Z,11.82
2022-12-05T18:08:45.507Z,11.75
2022-12-05T18:11:15.696Z,25.83
2022-12-05T18:13:43.170Z,33.65
2022-12-05T18:16:12.876Z,23.33
2022-12-05T18:18:40.215Z,16.20
2022-12-05T18:21:12.568Z,13.40
2022-12-05T18:23:41.173Z,13.80
2022-12-05T18:26:10.396Z,13.30
2022-12-05T18:28:39.982Z,12.35
2022-12-05T18:31:17.017Z,12.75
2022-12-05T18:33:46.871Z,12.55
2022-12-05T18:36:18.797Z,11.80
2022-12-05T18:38:53.149Z,12.85
2022-12-05T18:41:23.509Z,11.82
2022-12-05T18:43:51.293Z,9.82
2022-12-05T18:46:20.345Z,10.18
2022-12-05T18:48:48.988Z,11.60
2022-12-05T18:51:21.440Z,11.40
2022-12-05T18:53:54.927Z,11.52
2022-12-05T18:56:31.973Z,17.37
2022-12-05T18:59:05.935Z,13.57
2022-12-05T19:01:37.473Z,14.90
2022-12-05T19:04:07.584Z,12.93
2022-12-05T19:06:36.963Z,14.00
2022-12-05T19:09:07.634Z,10.32
2022-12-05T19:11:37.372Z,10.65
2022-12-05T19:14:05.617Z,11.07
2022-12-05T19:16:36.593Z,12.30
2022-12-05T19:19:06.691Z,12.85
2022-12-05T19:21:35.693Z,13.40
2022-12-05T19:24:06.998Z,12.27
2022-12-05T19:26:36.160Z,13.07
2022-12-05T19:29:04.251Z,10.50
2022-12-05T19:31:33.040Z,22.77
2022-12-05T19:34:01.702Z,12.23
2022-12-05T19:36:33.479Z,11.23
2022-12-05T19:39:00.802Z,12.50
2022-12-05T19:41:30.211Z,12.48
2022-12-05T19:44:02.102Z,11.38
2022-12-05T19:46:33.032Z,11.75
2022-12-05T19:49:04.814Z,17.17
2022-12-05T19:51:33.335Z,11.07
2022-12-05T19:54:03.766Z,11.65
2022-12-05T19:56:33.016Z,10.90
2022-12-05T19:59:00.795Z,13.98
2022-12-05T20:01:35.524Z,13.23
2022-12-05T20:04:11.109Z,13.70
2022-12-05T20:06:42.011Z,11.23
2022-12-05T20:09:11.111Z,15.18
2022-12-05T20:11:41.105Z,12.90
2022-12-05T20:14:12.441Z,12.73
2022-12-05T20:16:40.839Z,14.43
2022-12-05T20:19:09.657Z,11.35
2022-12-05T20:21:41.529Z,12.07
2022-12-05T20:24:12.048Z,13.50
2022-12-05T20:26:42.325Z,12.38
2022-12-05T20:29:11.466Z,15.30
2022-12-05T20:31:44.007Z,61.80
2022-12-05T20:34:14.453Z,45.00
2022-12-05T20:36:44.226Z,18.92
2022-12-05T20:39:15.439Z,66.70
2022-12-05T20:41:43.868Z,25.35
2022-12-05T20:44:16.340Z,13.98
2022-12-05T20:46:44.774Z,15.60
2022-12-05T20:49:13.715Z,13.90
2022-12-05T20:51:42.981Z,20.63
2022-12-05T20:54:18.387Z,16.73
2022-12-05T20:56:47.415Z,17.98
2022-12-05T20:59:16.523Z,20.75
2022-12-05T21:01:47.920Z,11.25
2022-12-05T21:04:16.648Z,16.88
2022-12-05T21:06:46.041Z,18.77
2022-12-05T21:09:26.426Z,12.25
2022-12-05T21:11:55.744Z,11.70
2022-12-05T21:14:24.093Z,15.15
2022-12-05T21:16:54.872Z,15.90
2022-12-05T21:19:22.925Z,14.40
2022-12-05T21:21:53.984Z,16.75
2022-12-05T21:24:23.876Z,13.43
2022-12-05T21:26:52.628Z,14.40
2022-12-05T21:29:20.105Z,13.57
2022-12-05T21:31:50.432Z,12.07
2022-12-05T21:34:22.498Z,15.20
2022-12-05T21:36:50.333Z,19.38
2022-12-05T21:39:17.697Z,12.48
2022-12-05T21:41:46.984Z,11.55
2022-12-05T21:44:15.092Z,12.95
2022-12-05T21:46:42.990Z,13.38
2022-12-05T21:49:11.751Z,13.00
2022-12-05T21:51:39.777Z,14.27
2022-12-05T21:54:07.212Z,15.38
2022-12-05T21:56:34.941Z,13.70
2022-12-05T21:59:05.940Z,15.98
2022-12-05T22:01:33.682Z,14.23
2022-12-05T22:04:02.407Z,12.73
2022-12-05T22:06:34.385Z,11.93
2022-12-05T22:09:02.408Z,11.52
2022-12-05T22:11:32.246Z,12.68
2022-12-05T22:13:59.587Z,14.00
2022-12-05T22:16:33.122Z,14.00
2022-12-05T22:19:01.248Z,12.32
2022-12-05T22:21:33.976Z,11.13
2022-12-05T22:24:01.830Z,12.15
2022-12-05T22:26:29.482Z,12.82
2022-12-05T22:28:58.004Z,10.70
2022-12-05T22:31:26.890Z,11.93
2022-12-05T22:33:54.257Z,12.20
2022-12-05T22:36:23.425Z,11.95
2022-12-05T22:38:50.883Z,12.45
2022-12-05T22:41:22.444Z,11.30
2022-12-05T22:43:55.763Z,11.32
2022-12-05T22:46:24.482Z,14.10
2022-12-05T22:48:53.493Z,11.25
2022-12-05T22:51:22.441Z,10.57
2022-12-05T22:53:54.166Z,11.25
2022-12-05T22:56:24.111Z,9.30
2022-12-05T22:58:59.480Z,12.57
2022-12-05T23:01:32.924Z,10.05
2022-12-05T23:04:09.787Z,12.27
2022-12-05T23:06:39.002Z,12.65
2022-12-05T23:09:09.421Z,11.55
2022-12-05T23:11:38.457Z,9.60
2022-12-05T23:14:07.425Z,12.27
2022-12-05T23:16:36.148Z,11.15
2022-12-05T23:19:06.065Z,9.75
2022-12-05T23:21:39.322Z,9.77
2022-12-05T23:24:11.507Z,11.02
2022-12-05T23:26:44.725Z,11.75
2022-12-05T23:29:13.385Z,11.98
2022-12-05T23:31:42.634Z,12.55
2022-12-05T23:34:11.904Z,12.85
2022-12-05T23:36:39.555Z,12.23
2022-12-05T23:39:07.077Z,10.60
2022-12-05T23:41:34.817Z,11.13
2022-12-05T23:44:02.141Z,9.25
2022-12-05T23:46:30.309Z,11.18
2022-12-05T23:48:58.240Z,11.48
2022-12-05T23:51:29.020Z,9.20
2022-12-05T23:53:59.475Z,9.00
2022-12-05T23:56:30.267Z,9.48
2022-12-05T23:58:57.903Z,9.40
